Time;durP1;ratioP1;P1;durP2;ratioP2;P2;SDS_P1;SDS_P2;PMS_P1;PMS_P2;Temp;Humidity;BMP_temperature;BMP_pressure;BME280_temperature;BME280_humidity;BME280_pressure;Samples;Min_cycle;Max_cycle;Signal;HPM_P1;HPM_P2
2021/12/18 00:00:39;;;;;;;0.00;0.00;;;3.60;90.90;;;;;;4158946;28;20535;-65
2021/12/18 00:03:04;;;;;;;0.00;0.00;;;3.50;91.00;;;;;;4145343;28;20042;-64
2021/12/18 00:05:27;;;;;;;0.00;0.00;;;3.50;91.10;;;;;;4145338;28;20046;-69
2021/12/18 00:07:49;;;;;;;0.00;0.00;;;3.50;90.90;;;;;;4144965;28;20096;-67
2021/12/18 00:10:11;;;;;;;0.00;0.00;;;3.60;90.90;;;;;;4145290;28;20045;-68
2021/12/18 00:12:34;;;;;;;0.00;0.00;;;3.50;90.90;;;;;;4158872;28;20053;-67
2021/12/18 00:14:56;;;;;;;0.00;0.00;;;3.30;91.10;;;;;;4158852;28;20450;-70
2021/12/18 00:17:19;;;;;;;0.00;0.00;;;3.40;91.20;;;;;;4145379;28;20048;-69
2021/12/18 00:19:41;;;;;;;0.00;0.00;;;3.30;91.10;;;;;;4145076;28;20060;-68
2021/12/18 00:22:05;;;;;;;0.00;0.00;;;3.30;91.30;;;;;;4144616;28;20050;-68
2021/12/18 00:24:28;;;;;;;0.00;0.00;;;3.20;91.40;;;;;;4145119;28;20045;-66
2021/12/18 00:26:50;;;;;;;0.00;0.00;;;3.20;91.40;;;;;;4145102;28;20467;-70
2021/12/18 00:29:13;;;;;;;0.00;0.00;;;3.20;91.50;;;;;;4145002;28;20534;-69
2021/12/18 00:31:35;;;;;;;0.00;0.00;;;3.20;91.40;;;;;;4144929;28;20628;-66
2021/12/18 00:33:58;;;;;;;0.00;0.00;;;3.30;91.50;;;;;;4146122;28;20193;-70
2021/12/18 00:36:21;;;;;;;0.00;0.00;;;3.40;91.30;;;;;;4170132;28;20126;-70
2021/12/18 00:38:43;;;;;;;0.00;0.00;;;3.60;91.10;;;;;;4131480;28;20062;-69
2021/12/18 00:43:36;;;;;;;0.00;0.00;;;3.50;90.90;;;;;;4144818;28;20509;-68
2021/12/18 00:45:59;;;;;;;0.00;0.00;;;3.50;91.00;;;;;;4158449;28;20084;-68
2021/12/18 00:48:22;;;;;;;0.00;0.00;;;3.50;91.10;;;;;;4144724;28;20045;-62
2021/12/18 00:50:44;;;;;;;0.00;0.00;;;3.40;91.00;;;;;;4158348;28;20049;-69
2021/12/18 00:53:06;;;;;;;0.00;0.00;;;3.50;91.00;;;;;;4144735;28;20486;-66
2021/12/18 00:55:29;;;;;;;0.00;0.00;;;3.60;90.90;;;;;;4158408;28;20046;-69
2021/12/18 00:57:53;;;;;;;0.00;0.00;;;3.70;90.80;;;;;;4144947;28;20037;-67
2021/12/18 01:00:21;;;;;;;0.00;0.00;;;3.70;90.70;;;;;;4157116;28;20046;-70
2021/12/18 01:02:44;;;;;;;0.00;0.00;;;3.70;90.70;;;;;;4158400;28;20052;-70
2021/12/18 01:05:08;;;;;;;0.00;0.00;;;3.60;90.80;;;;;;4158331;28;20418;-64
2021/12/18 01:07:30;;;;;;;0.00;0.00;;;3.70;90.80;;;;;;4158155;28;20087;-66
2021/12/18 01:10:02;;;;;;;0.00;0.00;;;3.60;90.60;;;;;;4160524;28;20140;-70
2021/12/18 01:12:31;;;;;;;0.00;0.00;;;3.60;90.80;;;;;;4160647;28;20038;-67
2021/12/18 01:25:26;;;;;;;0.00;0.00;;;3.90;90.50;;;;;;4132974;28;20047;-65
2021/12/18 01:27:48;;;;;;;0.00;0.00;;;3.90;90.30;;;;;;4146080;28;20046;-67
2021/12/18 01:30:13;;;;;;;0.00;0.00;;;3.90;90.30;;;;;;4146900;28;20066;-69
2021/12/18 01:32:36;;;;;;;0.00;0.00;;;3.90;90.40;;;;;;4126354;28;20466;-68
2021/12/18 01:34:58;;;;;;;0.00;0.00;;;3.70;90.40;;;;;;4132934;28;20060;-62
2021/12/18 01:37:21;;;;;;;0.00;0.00;;;3.60;90.70;;;;;;4132751;28;20054;-64
2021/12/18 01:39:43;;;;;;;0.00;0.00;;;3.50;90.80;;;;;;4130494;28;20057;-63
2021/12/18 01:51:15;;;;;;;0.00;0.00;;;3.30;91.10;;;;;;4146562;28;20057;-62
2021/12/18 01:52:32;;;;;;;0.00;0.00;;;3.30;91.00;;;;;;4116464;28;20445;-69
2021/12/18 01:54:55;;;;;;;0.00;0.00;;;3.20;91.00;;;;;;4129956;28;20145;-68
2021/12/18 01:57:17;;;;;;;0.00;0.00;;;3.10;91.10;;;;;;4116309;28;20055;-67
2021/12/18 01:59:47;;;;;;;0.00;0.00;;;3.10;91.10;;;;;;4116494;28;20046;-71
2021/12/18 02:02:11;;;;;;;0.00;0.00;;;3.00;91.30;;;;;;4130596;28;20587;-70
2021/12/18 02:04:33;;;;;;;0.00;0.00;;;2.90;91.40;;;;;;4131188;28;20056;-69
2021/12/18 02:06:59;;;;;;;0.00;0.00;;;2.80;91.50;;;;;;4121449;28;20045;-69
2021/12/18 02:09:26;;;;;;;0.00;0.00;;;2.80;91.60;;;;;;4114846;28;20142;-63
2021/12/18 02:11:48;;;;;;;0.00;0.00;;;2.80;91.60;;;;;;4114105;28;20155;-63
2021/12/18 02:14:35;;;;;;;0.00;0.00;;;2.80;91.50;;;;;;4114678;28;20099;-63
2021/12/18 02:22:11;;;;;;;0.00;0.00;;;2.90;91.30;;;;;;4102026;28;20038;-69
2021/12/18 02:24:34;;;;;;;0.00;0.00;;;3.00;91.20;;;;;;4114717;28;20451;-63
2021/12/18 02:26:58;;;;;;;0.00;0.00;;;3.00;91.20;;;;;;4114568;28;20039;-70
2021/12/18 02:29:20;;;;;;;0.00;0.00;;;2.90;91.20;;;;;;4101200;28;20062;-63
2021/12/18 02:31:44;;;;;;;0.00;0.00;;;2.90;91.30;;;;;;4114248;28;20054;-68
2021/12/18 02:34:16;;;;;;;0.00;0.00;;;2.90;91.50;;;;;;4112959;28;20512;-68
2021/12/18 02:36:46;;;;;;;0.00;0.00;;;2.90;91.50;;;;;;4141780;28;20046;-64
2021/12/18 02:39:22;;;;;;;0.00;0.00;;;2.90;91.40;;;;;;4146685;28;20140;-64
2021/12/18 02:41:56;;;;;;;0.00;0.00;;;3.00;91.30;;;;;;4132744;28;20051;-71
2021/12/18 02:44:18;;;;;;;0.00;0.00;;;3.10;91.10;;;;;;4176511;28;20037;-69
2021/12/18 02:46:41;;;;;;;0.00;0.00;;;3.00;91.10;;;;;;4163097;28;20034;-64
2021/12/18 02:49:14;;;;;;;0.00;0.00;;;3.00;91.00;;;;;;4162990;28;20148;-64
2021/12/18 02:51:37;;;;;;;0.00;0.00;;;2.90;91.00;;;;;;4176575;28;20075;-70
2021/12/18 02:53:59;;;;;;;0.00;0.00;;;2.90;91.10;;;;;;4162399;28;20133;-70
2021/12/18 02:56:23;;;;;;;0.00;0.00;;;2.90;91.00;;;;;;4162556;28;20136;-64
2021/12/18 02:58:47;;;;;;;0.00;0.00;;;2.90;91.00;;;;;;4162628;28;20043;-70
2021/12/18 03:01:13;;;;;;;0.00;0.00;;;2.90;91.00;;;;;;4162521;28;20053;-70
2021/12/18 03:03:38;;;;;;;0.00;0.00;;;2.90;90.90;;;;;;4176517;28;20080;-70
2021/12/18 03:06:22;;;;;;;0.00;0.00;;;2.80;90.90;;;;;;4147812;28;20483;-68
2021/12/18 03:24:30;;;;;;;0.00;0.00;;;2.70;91.00;;;;;;4148438;28;20045;-67
2021/12/18 03:26:52;;;;;;;0.00;0.00;;;2.70;91.10;;;;;;4161983;28;20072;-62
2021/12/18 03:29:14;;;;;;;0.00;0.00;;;2.60;91.30;;;;;;4148562;28;20490;-63
2021/12/18 03:31:37;;;;;;;0.00;0.00;;;2.50;91.70;;;;;;4161983;28;20049;-64
2021/12/18 03:34:00;;;;;;;0.00;0.00;;;2.50;91.80;;;;;;4161862;28;20462;-62
2021/12/18 03:36:22;;;;;;;0.00;0.00;;;2.40;91.90;;;;;;4161887;28;20108;-65
2021/12/18 03:38:44;;;;;;;0.00;0.00;;;2.50;91.90;;;;;;4161669;28;20687;-68
2021/12/18 03:41:06;;;;;;;0.00;0.00;;;2.50;91.90;;;;;;4147993;28;20077;-69
2021/12/18 03:43:29;;;;;;;0.00;0.00;;;2.50;91.90;;;;;;4162012;28;20136;-65
2021/12/18 03:45:51;;;;;;;0.00;0.00;;;2.50;92.00;;;;;;4161282;28;20081;-63
2021/12/18 03:48:13;;;;;;;0.00;0.00;;;2.60;92.00;;;;;;4175901;28;20068;-63
2021/12/18 03:50:36;;;;;;;0.00;0.00;;;2.60;92.00;;;;;;4161610;28;20107;-66
2021/12/18 03:52:58;;;;;;;0.00;0.00;;;2.70;91.90;;;;;;4162019;28;20045;-63
2021/12/18 03:55:21;;;;;;;0.00;0.00;;;2.80;91.80;;;;;;4161869;28;20563;-65
2021/12/18 03:57:43;;;;;;;0.00;0.00;;;2.70;91.70;;;;;;4161842;28;20087;-64
2021/12/18 04:00:09;;;;;;;0.00;0.00;;;2.60;91.90;;;;;;4161185;28;21352;-63
2021/12/18 04:02:34;;;;;;;0.00;0.00;;;2.60;92.10;;;;;;4175806;28;20048;-67
2021/12/18 04:04:56;;;;;;;0.00;0.00;;;2.50;92.20;;;;;;4161801;28;20080;-62
2021/12/18 04:07:19;;;;;;;0.00;0.00;;;2.50;92.30;;;;;;4161742;28;20045;-67
2021/12/18 04:09:41;;;;;;;0.00;0.00;;;2.50;92.40;;;;;;4148067;28;20128;-63
2021/12/18 04:12:04;;;;;;;0.00;0.00;;;2.60;92.30;;;;;;4160955;28;20469;-63
2021/12/18 04:14:26;;;;;;;0.00;0.00;;;2.80;92.20;;;;;;4161678;28;20037;-67
2021/12/18 04:16:49;;;;;;;0.00;0.00;;;2.90;92.00;;;;;;4161660;28;20052;-67
2021/12/18 04:19:11;;;;;;;0.00;0.00;;;2.90;91.90;;;;;;4175493;28;20103;-63
2021/12/18 04:21:34;;;;;;;0.00;0.00;;;2.90;91.80;;;;;;4175116;28;20119;-62
2021/12/18 04:23:57;;;;;;;0.00;0.00;;;2.70;91.90;;;;;;4144747;28;20129;-64
2021/12/18 04:26:20;;;;;;;0.00;0.00;;;2.70;92.10;;;;;;4158734;28;20041;-63
2021/12/18 04:28:42;;;;;;;0.00;0.00;;;2.70;92.20;;;;;;4139277;28;20046;-63
2021/12/18 04:31:05;;;;;;;0.00;0.00;;;2.60;92.20;;;;;;4136924;28;20054;-67
2021/12/18 04:33:27;;;;;;;0.00;0.00;;;2.60;92.20;;;;;;4145153;28;20046;-65
2021/12/18 04:35:50;;;;;;;0.00;0.00;;;2.60;92.20;;;;;;4158081;28;20049;-69
2021/12/18 04:38:13;;;;;;;0.00;0.00;;;2.70;92.30;;;;;;4144854;28;20052;-69
2021/12/18 04:40:36;;;;;;;0.00;0.00;;;2.60;92.40;;;;;;4144558;28;20112;-65
2021/12/18 04:42:58;;;;;;;0.00;0.00;;;2.60;92.40;;;;;;4144929;28;20042;-68
2021/12/18 04:45:21;;;;;;;0.00;0.00;;;2.50;92.50;;;;;;4144909;28;20041;-63
2021/12/18 04:47:43;;;;;;;0.00;0.00;;;2.30;92.70;;;;;;4144886;28;20073;-64
2021/12/18 04:50:06;;;;;;;0.00;0.00;;;2.30;92.90;;;;;;4160707;28;20046;-66
2021/12/18 04:52:29;;;;;;;0.00;0.00;;;2.30;93.00;;;;;;4168842;28;20144;-63
2021/12/18 04:54:51;;;;;;;0.00;0.00;;;2.20;93.10;;;;;;4144870;28;20133;-68
2021/12/18 04:57:13;;;;;;;0.00;0.00;;;2.20;93.10;;;;;;4157943;28;20406;-65
2021/12/18 04:59:42;;;;;;;0.00;0.00;;;2.20;93.20;;;;;;4159797;28;20052;-67
2021/12/18 05:02:05;;;;;;;0.00;0.00;;;2.30;93.20;;;;;;4171795;28;20045;-66
2021/12/18 05:04:28;;;;;;;0.00;0.00;;;2.30;93.10;;;;;;4158306;28;20133;-69
2021/12/18 05:06:52;;;;;;;0.00;0.00;;;2.40;92.90;;;;;;4144456;28;20045;-67
2021/12/18 05:09:17;;;;;;;0.00;0.00;;;2.40;92.80;;;;;;4144681;28;20057;-67
2021/12/18 05:11:44;;;;;;;0.00;0.00;;;2.40;92.70;;;;;;4144612;28;20088;-66
2021/12/18 05:14:07;;;;;;;0.00;0.00;;;2.30;92.70;;;;;;4157749;28;20181;-66
2021/12/18 05:16:30;;;;;;;0.00;0.00;;;2.30;92.80;;;;;;4150578;28;20048;-65
2021/12/18 05:18:52;;;;;;;0.00;0.00;;;2.40;92.70;;;;;;4151924;28;20124;-67
2021/12/18 05:21:15;;;;;;;0.00;0.00;;;2.40;92.60;;;;;;4144487;28;20127;-69
2021/12/18 05:23:37;;;;;;;0.00;0.00;;;2.40;92.50;;;;;;4131101;28;20053;-67
2021/12/18 05:26:00;;;;;;;0.00;0.00;;;2.40;92.40;;;;;;4144372;28;20088;-67
2021/12/18 05:28:22;;;;;;;0.00;0.00;;;2.40;92.40;;;;;;4144523;28;20046;-68
2021/12/18 05:30:45;;;;;;;0.00;0.00;;;2.40;92.40;;;;;;4144340;28;20049;-67
2021/12/18 05:33:07;;;;;;;0.00;0.00;;;2.40;92.40;;;;;;4144318;28;20050;-66
2021/12/18 05:35:30;;;;;;;0.00;0.00;;;2.30;92.40;;;;;;4144337;28;20136;-66
2021/12/18 05:37:54;;;;;;;0.00;0.00;;;2.30;92.40;;;;;;4143918;28;20340;-65
2021/12/18 05:40:23;;;;;;;0.00;0.00;;;2.30;92.40;;;;;;4144300;28;20057;-68
2021/12/18 05:42:47;;;;;;;0.00;0.00;;;2.40;92.40;;;;;;4144576;28;20472;-63
2021/12/18 05:45:09;;;;;;;0.00;0.00;;;2.40;92.20;;;;;;4131077;28;20042;-68
2021/12/18 05:47:32;;;;;;;0.00;0.00;;;2.40;92.30;;;;;;4144339;28;20049;-66
2021/12/18 05:49:54;;;;;;;0.00;0.00;;;2.40;92.30;;;;;;4144040;28;20178;-68
2021/12/18 05:52:16;;;;;;;0.00;0.00;;;2.40;92.10;;;;;;4143882;28;20049;-69
2021/12/18 05:54:39;;;;;;;0.00;0.00;;;2.40;92.10;;;;;;4144176;28;20385;-67
2021/12/18 05:57:12;;;;;;;0.00;0.00;;;2.40;92.00;;;;;;4144135;28;20050;-64
2021/12/18 05:59:35;;;;;;;0.00;0.00;;;2.40;92.00;;;;;;4144238;28;20053;-69
2021/12/18 06:01:57;;;;;;;0.00;0.00;;;2.40;92.00;;;;;;4143416;28;20057;-68
2021/12/18 06:04:19;;;;;;;0.00;0.00;;;2.40;92.00;;;;;;4144391;28;20436;-68
2021/12/18 06:06:42;;;;;;;0.00;0.00;;;2.40;92.00;;;;;;4144374;28;20054;-69
2021/12/18 06:09:04;;;;;;;0.00;0.00;;;2.40;91.90;;;;;;4145836;28;20049;-68
2021/12/18 06:11:31;;;;;;;0.00;0.00;;;2.30;91.90;;;;;;4147006;28;20520;-65
2021/12/18 06:13:55;;;;;;;0.00;0.00;;;2.20;92.10;;;;;;4162274;28;20081;-67
2021/12/18 06:16:20;;;;;;;0.00;0.00;;;2.10;92.30;;;;;;4147037;28;20042;-67
2021/12/18 06:18:45;;;;;;;0.00;0.00;;;2.10;92.40;;;;;;4133428;28;20455;-66
2021/12/18 06:21:09;;;;;;;0.00;0.00;;;2.10;92.60;;;;;;4133259;28;20124;-68
2021/12/18 06:23:31;;;;;;;0.00;0.00;;;2.10;92.50;;;;;;4160732;28;20160;-68
2021/12/18 06:25:54;;;;;;;0.00;0.00;;;2.10;92.60;;;;;;4160217;28;20060;-68
2021/12/18 06:28:17;;;;;;;0.00;0.00;;;2.10;92.60;;;;;;4147020;28;20034;-69
2021/12/18 06:30:39;;;;;;;0.00;0.00;;;2.00;92.60;;;;;;4146563;28;20129;-68
2021/12/18 06:33:03;;;;;;;0.00;0.00;;;1.90;92.80;;;;;;4160588;28;20041;-68
2021/12/18 06:35:26;;;;;;;0.00;0.00;;;1.90;92.80;;;;;;4146904;28;20054;-69
2021/12/18 06:37:49;;;;;;;0.00;0.00;;;1.90;92.90;;;;;;4132664;28;20067;-69
2021/12/18 06:40:15;;;;;;;0.00;0.00;;;1.90;92.90;;;;;;4133237;28;20415;-68
2021/12/18 06:42:42;;;;;;;0.00;0.00;;;1.80;93.10;;;;;;4146245;28;20468;-70
2021/12/18 06:45:06;;;;;;;0.00;0.00;;;1.80;93.00;;;;;;4133154;28;20085;-68
2021/12/18 06:47:29;;;;;;;0.00;0.00;;;1.80;92.90;;;;;;4146518;28;20443;-68
2021/12/18 06:49:51;;;;;;;0.00;0.00;;;1.90;92.90;;;;;;4132481;28;20460;-67
2021/12/18 06:52:14;;;;;;;0.00;0.00;;;1.90;92.80;;;;;;4146548;28;20046;-68
2021/12/18 06:54:36;;;;;;;0.00;0.00;;;1.90;92.70;;;;;;4146599;28;20700;-69
2021/12/18 06:56:59;;;;;;;0.00;0.00;;;2.00;92.60;;;;;;4146311;28;20053;-66
2021/12/18 06:59:21;;;;;;;0.00;0.00;;;2.00;92.50;;;;;;4146534;28;20054;-68
2021/12/18 07:01:44;;;;;;;0.00;0.00;;;1.90;92.70;;;;;;4146202;28;20274;-68
2021/12/18 07:04:07;;;;;;;0.00;0.00;;;1.80;92.70;;;;;;4159377;28;20464;-69
2021/12/18 07:06:29;;;;;;;0.00;0.00;;;1.80;92.90;;;;;;4146261;28;20480;-68
2021/12/18 07:08:52;;;;;;;0.00;0.00;;;1.80;92.80;;;;;;4146303;28;20515;-66
2021/12/18 07:11:14;;;;;;;0.00;0.00;;;1.80;92.90;;;;;;4146035;28;20141;-68
2021/12/18 07:13:36;;;;;;;0.00;0.00;;;1.90;92.80;;;;;;4146254;28;20073;-67
2021/12/18 07:15:59;;;;;;;0.00;0.00;;;1.90;92.70;;;;;;4145797;28;20053;-68
2021/12/18 07:18:21;;;;;;;0.00;0.00;;;2.00;92.70;;;;;;4146295;28;20591;-67
2021/12/18 07:20:44;;;;;;;0.00;0.00;;;2.00;92.50;;;;;;4145190;28;20049;-66
2021/12/18 07:23:06;;;;;;;0.00;0.00;;;2.00;92.40;;;;;;4156807;28;20053;-68
2021/12/18 07:25:29;;;;;;;0.00;0.00;;;1.90;92.50;;;;;;4162134;28;20103;-65
2021/12/18 07:27:51;;;;;;;0.00;0.00;;;1.90;92.80;;;;;;4145732;28;20496;-67
2021/12/18 07:30:16;;;;;;;0.00;0.00;;;2.00;92.70;;;;;;4146102;28;20042;-66
2021/12/18 07:32:38;;;;;;;0.00;0.00;;;2.00;92.70;;;;;;4159732;28;20045;-68
2021/12/18 07:35:06;;;;;;;0.00;0.00;;;1.90;92.70;;;;;;4145809;28;20054;-68
2021/12/18 07:37:33;;;;;;;0.00;0.00;;;1.90;92.90;;;;;;4159437;28;20459;-68
2021/12/18 07:39:56;;;;;;;0.00;0.00;;;2.00;92.90;;;;;;4148170;28;20415;-65
2021/12/18 07:42:18;;;;;;;0.00;0.00;;;2.10;92.80;;;;;;4175924;28;20489;-68
2021/12/18 07:44:42;;;;;;;0.00;0.00;;;2.20;92.60;;;;;;4162255;28;20120;-67
2021/12/18 07:47:05;;;;;;;0.00;0.00;;;2.30;92.50;;;;;;4162259;28;20060;-63
2021/12/18 07:49:32;;;;;;;0.00;0.00;;;2.40;92.40;;;;;;4148564;28;20628;-67
2021/12/18 07:52:00;;;;;;;0.00;0.00;;;2.40;92.40;;;;;;4161277;28;20091;-66
2021/12/18 07:54:22;;;;;;;0.00;0.00;;;2.60;92.30;;;;;;4175879;28;20098;-67
2021/12/18 07:56:44;;;;;;;0.00;0.00;;;2.80;92.00;;;;;;4161911;28;20057;-65
2021/12/18 07:59:06;;;;;;;0.00;0.00;;;2.80;91.80;;;;;;4161855;28;20137;-66
2021/12/18 08:01:29;;;;;;;0.00;0.00;;;2.70;92.00;;;;;;4161719;28;20072;-69
2021/12/18 08:03:51;;;;;;;0.00;0.00;;;2.70;92.20;;;;;;4175366;28;20045;-68
2021/12/18 08:06:15;;;;;;;0.00;0.00;;;2.60;92.30;;;;;;4148585;28;20069;-66
2021/12/18 08:08:38;;;;;;;0.00;0.00;;;2.60;92.40;;;;;;4148105;28;20076;-68
2021/12/18 08:11:00;;;;;;;0.00;0.00;;;2.70;92.40;;;;;;4161677;28;20041;-68
2021/12/18 08:13:23;;;;;;;0.00;0.00;;;2.90;92.30;;;;;;4175707;28;20132;-69
2021/12/18 08:15:45;;;;;;;0.00;0.00;;;2.90;92.10;;;;;;4161835;28;20415;-69
2021/12/18 08:18:08;;;;;;;0.00;0.00;;;2.90;92.20;;;;;;4161238;28;20049;-63
2021/12/18 08:20:30;;;;;;;0.00;0.00;;;3.00;92.30;;;;;;4175754;28;20132;-67
2021/12/18 08:22:52;;;;;;;0.00;0.00;;;3.20;92.20;;;;;;4161531;28;20592;-66
2021/12/18 08:25:15;;;;;;;0.00;0.00;;;3.40;91.90;;;;;;4161674;28;20574;-70
2021/12/18 08:27:37;;;;;;;0.00;0.00;;;3.30;91.80;;;;;;4175418;28;20056;-68
2021/12/18 08:30:00;;;;;;;0.00;0.00;;;3.20;92.10;;;;;;4147343;28;20554;-62
2021/12/18 08:32:22;;;;;;;0.00;0.00;;;3.10;92.10;;;;;;4146798;28;20049;-61
2021/12/18 08:34:45;;;;;;;0.00;0.00;;;3.10;92.30;;;;;;4161353;28;20554;-62
2021/12/18 08:37:08;;;;;;;0.00;0.00;;;3.40;92.20;;;;;;4161079;28;20057;-61
2021/12/18 08:39:30;;;;;;;0.00;0.00;;;3.60;92.10;;;;;;4161521;28;20388;-65
2021/12/18 08:41:53;;;;;;;0.00;0.00;;;3.90;91.40;;;;;;4174759;28;20053;-65
2021/12/18 08:44:16;;;;;;;0.00;0.00;;;4.00;91.00;;;;;;4161553;28;20037;-62
2021/12/18 08:46:40;;;;;;;0.00;0.00;;;4.10;91.00;;;;;;4161542;28;20053;-62
2021/12/18 08:49:03;;;;;;;0.00;0.00;;;4.20;90.80;;;;;;4161484;28;20067;-63
2021/12/18 08:51:25;;;;;;;0.00;0.00;;;4.20;90.60;;;;;;4161168;28;20392;-63
2021/12/18 08:53:47;;;;;;;0.00;0.00;;;4.20;90.50;;;;;;4174801;28;20045;-65
2021/12/18 08:56:10;;;;;;;0.00;0.00;;;4.40;90.40;;;;;;4161243;28;20432;-63
2021/12/18 08:58:32;;;;;;;0.00;0.00;;;4.50;90.20;;;;;;4161180;28;20068;-64
2021/12/18 09:00:56;;;;;;;0.00;0.00;;;4.80;89.70;;;;;;4161070;28;20124;-63
2021/12/18 09:03:19;;;;;;;0.00;0.00;;;5.10;88.80;;;;;;4147898;28;20519;-63
2021/12/18 09:05:43;;;;;;;0.00;0.00;;;5.60;87.10;;;;;;4175070;28;20518;-61
2021/12/18 09:08:05;;;;;;;0.00;0.00;;;5.90;86.10;;;;;;4146817;28;20058;-62
2021/12/18 09:10:28;;;;;;;0.00;0.00;;;6.10;85.00;;;;;;4161090;28;20137;-62
2021/12/18 09:12:50;;;;;;;0.00;0.00;;;6.30;84.10;;;;;;4161142;28;20136;-63
2021/12/18 09:15:13;;;;;;;0.00;0.00;;;6.60;83.40;;;;;;4160910;28;20404;-64
2021/12/18 09:17:35;;;;;;;0.00;0.00;;;7.00;82.20;;;;;;4161042;28;20103;-66
2021/12/18 09:19:58;;;;;;;0.00;0.00;;;7.10;80.70;;;;;;4160632;28;20453;-62
2021/12/18 09:22:20;;;;;;;0.00;0.00;;;7.20;79.90;;;;;;4146964;28;20046;-65
2021/12/18 09:24:43;;;;;;;0.00;0.00;;;7.00;79.30;;;;;;4160855;28;20049;-64
2021/12/18 09:27:06;;;;;;;0.00;0.00;;;7.20;78.80;;;;;;4147091;28;20512;-67
2021/12/18 09:29:28;;;;;;;0.00;0.00;;;7.20;79.30;;;;;;4160556;28;20076;-67
2021/12/18 09:31:51;;;;;;;0.00;0.00;;;7.60;79.00;;;;;;4173887;28;20076;-67
2021/12/18 09:34:13;;;;;;;0.00;0.00;;;7.50;77.60;;;;;;4162225;28;20442;-66
2021/12/18 09:36:36;;;;;;;0.00;0.00;;;7.90;77.70;;;;;;4175050;28;20064;-66
2021/12/18 09:38:59;;;;;;;0.00;0.00;;;8.20;76.90;;;;;;4161934;28;20165;-66
2021/12/18 09:41:22;;;;;;;0.00;0.00;;;8.40;75.90;;;;;;4175071;28;20061;-66
2021/12/18 09:43:44;;;;;;;0.00;0.00;;;8.90;74.70;;;;;;4162630;28;20077;-66
2021/12/18 09:46:12;;;;;;;0.00;0.00;;;9.20;74.20;;;;;;4147832;28;20054;-62
2021/12/18 09:48:39;;;;;;;0.00;0.00;;;9.00;73.00;;;;;;4147514;28;20080;-64
2021/12/18 09:51:07;;;;;;;0.00;0.00;;;9.00;73.30;;;;;;4133938;28;20518;-62
2021/12/18 09:53:30;;;;;;;0.00;0.00;;;8.80;73.00;;;;;;4161357;28;20099;-66
2021/12/18 09:55:53;;;;;;;0.00;0.00;;;8.80;72.80;;;;;;4147223;28;20133;-67
2021/12/18 09:58:15;;;;;;;0.00;0.00;;;9.00;72.50;;;;;;4147547;28;20148;-66
2021/12/18 10:00:39;;;;;;;0.00;0.00;;;9.40;70.90;;;;;;4146950;28;20069;-66
2021/12/18 10:03:01;;;;;;;0.00;0.00;;;9.50;70.00;;;;;;4147332;28;20077;-65
2021/12/18 10:05:24;;;;;;;0.00;0.00;;;9.80;70.00;;;;;;4147292;28;20077;-63
2021/12/18 10:08:04;;;;;;;0.00;0.00;;;9.90;69.80;;;;;;4163195;28;20054;-67
2021/12/18 10:10:26;;;;;;;0.00;0.00;;;10.40;69.30;;;;;;4158271;28;20252;-63
2021/12/18 10:13:03;;;;;;;0.00;0.00;;;10.70;67.70;;;;;;4147432;28;20192;-63
2021/12/18 10:15:25;;;;;;;0.00;0.00;;;10.60;68.20;;;;;;4147186;28;20077;-64
2021/12/18 10:18:02;;;;;;;0.00;0.00;;;10.80;66.80;;;;;;4132925;28;20054;-62
2021/12/18 10:20:25;;;;;;;0.00;0.00;;;10.80;66.60;;;;;;4147272;28;20772;-62
2021/12/18 10:22:56;;;;;;;0.00;0.00;;;10.80;65.40;;;;;;4147145;28;20084;-63
2021/12/18 10:25:22;;;;;;;0.00;0.00;;;10.40;66.40;;;;;;4147029;28;20093;-61
2021/12/18 10:28:13;;;;;;;0.00;0.00;;;10.60;66.40;;;;;;4147142;28;20096;-61
2021/12/18 10:30:43;;;;;;;0.00;0.00;;;10.40;65.70;;;;;;4146503;28;20057;-63
2021/12/18 10:33:11;;;;;;;0.00;0.00;;;10.10;66.10;;;;;;4147006;28;20050;-62
2021/12/18 10:35:44;;;;;;;0.00;0.00;;;10.30;66.60;;;;;;4146918;28;20101;-61
2021/12/18 10:38:07;;;;;;;0.00;0.00;;;10.90;65.50;;;;;;4146562;28;20550;-63
2021/12/18 10:40:42;;;;;;;0.00;0.00;;;11.10;63.80;;;;;;4146994;28;20534;-65
2021/12/18 10:43:04;;;;;;;0.00;0.00;;;11.10;63.10;;;;;;4160487;28;20128;-65
2021/12/18 10:45:27;;;;;;;0.00;0.00;;;10.70;62.60;;;;;;4146946;28;20408;-64
2021/12/18 10:48:14;;;;;;;0.00;0.00;;;10.40;63.40;;;;;;4162953;28;20561;-65
2021/12/18 10:50:40;;;;;;;0.00;0.00;;;10.20;63.70;;;;;;4162783;28;20415;-61
2021/12/18 10:53:31;;;;;;;0.00;0.00;;;10.30;64.20;;;;;;4162998;28;20128;-63
2021/12/18 10:55:57;;;;;;;0.00;0.00;;;10.50;62.80;;;;;;4161613;28;20060;-62
2021/12/18 10:58:31;;;;;;;0.00;0.00;;;10.70;63.10;;;;;;4176699;28;20037;-61
2021/12/18 11:00:57;;;;;;;0.00;0.00;;;11.10;62.40;;;;;;4162480;28;20045;-62
2021/12/18 11:03:28;;;;;;;0.00;0.00;;;11.30;61.30;;;;;;4162782;28;20053;-65
2021/12/18 11:06:19;;;;;;;0.00;0.00;;;11.70;60.40;;;;;;4176458;28;20099;-65
2021/12/18 11:09:08;;;;;;;0.00;0.00;;;11.70;60.00;;;;;;4150255;28;20049;-64
2021/12/18 11:13:58;;;;;;;0.00;0.00;;;12.20;59.10;;;;;;4161104;28;20045;-64
2021/12/18 11:16:22;;;;;;;0.00;0.00;;;12.20;57.30;;;;;;4146396;28;20519;-62
2021/12/18 11:18:46;;;;;;;0.00;0.00;;;11.80;58.30;;;;;;4146187;28;20137;-62
2021/12/18 11:21:09;;;;;;;0.00;0.00;;;11.50;58.90;;;;;;4145805;28;20064;-67
2021/12/18 11:23:47;;;;;;;0.00;0.00;;;11.50;58.50;;;;;;4146297;28;20049;-62
2021/12/18 11:26:09;;;;;;;0.00;0.00;;;11.20;58.90;;;;;;4145725;28;20041;-64
2021/12/18 11:28:32;;;;;;;0.00;0.00;;;11.20;59.10;;;;;;4146059;28;20074;-65
2021/12/18 11:30:55;;;;;;;0.00;0.00;;;10.80;59.90;;;;;;4145903;28;20096;-65
2021/12/18 11:33:17;;;;;;;0.00;0.00;;;10.30;61.20;;;;;;4146017;28;20050;-64
2021/12/18 11:35:42;;;;;;;0.00;0.00;;;9.60;62.70;;;;;;4132241;28;20093;-62
2021/12/18 11:38:08;;;;;;;0.00;0.00;;;9.40;63.50;;;;;;4159389;28;20057;-64
2021/12/18 11:40:35;;;;;;;0.00;0.00;;;9.10;64.70;;;;;;4145910;28;20064;-65
2021/12/18 11:42:58;;;;;;;0.00;0.00;;;8.80;65.60;;;;;;4159839;28;20175;-62
2021/12/18 11:45:31;;;;;;;0.00;0.00;;;8.70;65.90;;;;;;4146039;28;20042;-63
2021/12/18 11:47:56;;;;;;;0.00;0.00;;;8.40;67.10;;;;;;4145455;28;20058;-62
2021/12/18 11:50:24;;;;;;;0.00;0.00;;;8.00;68.20;;;;;;4145767;28;20422;-64
2021/12/18 11:53:06;;;;;;;0.00;0.00;;;7.80;69.30;;;;;;4159437;28;20064;-62
2021/12/18 11:55:54;;;;;;;0.00;0.00;;;7.70;69.50;;;;;;4145627;28;20046;-64
2021/12/18 11:58:30;;;;;;;0.00;0.00;;;7.70;69.50;;;;;;4147878;28;20072;-66
2021/12/18 12:01:02;;;;;;;0.00;0.00;;;7.40;70.20;;;;;;4161665;28;20045;-60
2021/12/18 12:03:30;;;;;;;0.00;0.00;;;7.30;71.00;;;;;;4161655;28;20049;-61
2021/12/18 12:05:55;;;;;;;0.00;0.00;;;7.20;72.60;;;;;;4161318;28;20454;-64
2021/12/18 12:08:37;;;;;;;0.00;0.00;;;7.20;72.60;;;;;;4162034;28;20049;-61
2021/12/18 12:11:16;;;;;;;0.00;0.00;;;7.10;73.00;;;;;;4161584;28;20049;-62
2021/12/18 12:14:11;;;;;;;0.00;0.00;;;7.10;72.70;;;;;;4175479;28;20075;-63
2021/12/18 12:16:43;;;;;;;0.00;0.00;;;7.10;72.70;;;;;;4144990;28;20073;-62
2021/12/18 12:19:07;;;;;;;0.00;0.00;;;6.90;72.90;;;;;;4145250;28;20435;-62
2021/12/18 12:21:58;;;;;;;0.00;0.00;;;6.70;73.70;;;;;;4144918;28;20057;-62
2021/12/18 12:24:24;;;;;;;0.00;0.00;;;6.70;74.10;;;;;;4144213;28;20050;-62
2021/12/18 12:26:48;;;;;;;0.00;0.00;;;6.50;74.90;;;;;;4145237;28;20149;-61
2021/12/18 12:29:13;;;;;;;0.00;0.00;;;6.50;75.30;;;;;;4144986;28;20045;-61
2021/12/18 12:31:51;;;;;;;0.00;0.00;;;6.40;74.90;;;;;;4144929;28;20054;-62
2021/12/18 12:34:33;;;;;;;0.00;0.00;;;6.30;75.20;;;;;;4161153;28;20144;-64
2021/12/18 12:36:58;;;;;;;0.00;0.00;;;6.10;76.50;;;;;;4161386;28;20060;-65
2021/12/18 12:39:20;;;;;;;0.00;0.00;;;6.10;76.40;;;;;;4175306;28;20091;-62
2021/12/18 12:41:50;;;;;;;0.00;0.00;;;6.10;76.30;;;;;;4147703;28;20120;-64
2021/12/18 12:44:35;;;;;;;0.00;0.00;;;6.20;76.00;;;;;;4160865;28;20053;-66
2021/12/18 12:47:27;;;;;;;0.00;0.00;;;6.20;75.60;;;;;;4161372;28;20096;-62
2021/12/18 12:49:53;;;;;;;0.00;0.00;;;6.20;75.80;;;;;;4160951;28;20522;-62
2021/12/18 12:52:18;;;;;;;0.00;0.00;;;6.30;76.50;;;;;;4174976;28;20128;-61
2021/12/18 12:55:06;;;;;;;0.00;0.00;;;6.30;76.30;;;;;;4148173;28;20108;-66
2021/12/18 12:57:30;;;;;;;0.00;0.00;;;6.30;76.10;;;;;;4161137;28;20132;-62
2021/12/18 13:00:15;;;;;;;0.00;0.00;;;6.20;76.10;;;;;;4144378;28;20100;-62
2021/12/18 13:02:48;;;;;;;0.00;0.00;;;6.10;76.30;;;;;;4158360;28;20041;-62
2021/12/18 13:05:13;;;;;;;0.00;0.00;;;6.20;76.30;;;;;;4144686;28;20100;-63
2021/12/18 13:07:44;;;;;;;0.00;0.00;;;6.20;75.80;;;;;;4158429;28;20053;-66
2021/12/18 13:10:08;;;;;;;0.00;0.00;;;6.10;76.20;;;;;;4144321;28;20042;-63
2021/12/18 13:12:30;;;;;;;0.00;0.00;;;6.00;76.60;;;;;;4144574;28;20510;-63
2021/12/18 13:14:54;;;;;;;0.00;0.00;;;5.90;77.00;;;;;;4144824;28;20096;-66
2021/12/18 13:17:22;;;;;;;0.00;0.00;;;6.00;77.40;;;;;;4131484;28;20057;-67
2021/12/18 13:19:57;;;;;;;0.00;0.00;;;6.10;77.20;;;;;;4147725;28;20060;-67
2021/12/18 13:22:25;;;;;;;0.00;0.00;;;6.20;76.70;;;;;;4173360;28;20046;-69
2021/12/18 13:25:14;;;;;;;0.00;0.00;;;6.30;76.10;;;;;;4148167;28;20041;-62
2021/12/18 13:27:40;;;;;;;0.00;0.00;;;6.20;76.20;;;;;;4147955;28;20466;-65
2021/12/18 13:30:12;;;;;;;0.00;0.00;;;6.20;76.40;;;;;;4124072;28;20054;-63